Terminal Aerodrome Forecast
Issued by NWS Melbourne, FL

Home | Current Version | Previous Version | Text Only | Print | Product List | Glossary On
Versions: 1 2 3 4 5 6 7 8 9 10 11 12 13 14 15 16
000
FTUS42 KMLB 040533
TAFDAB
TAF
KDAB 040533Z 0406/0506 26003KT P6SM FEW035 SCT250
     FM041300 31004KT P6SM SCT030 SCT250
     FM041800 06007KT P6SM VCTS SCT035CB SCT250
      TEMPO 0418/0421 TS BKN035CB BKN070
     FM050000 05004KT P6SM VCSH SCT035 BKN070=

USA.gov is the U.S. government's official web portal to all federal, state and local government web resources and services.